Date,TemperatureHighF,TemperatureAvgF,TemperatureLowF,DewpointHighF,DewpointAvgF,DewpointLowF,HumidityHigh,HumidityAvg,HumidityLow,PressureMaxIn,PressureMinIn,WindSpeedMaxMPH,WindSpeedAvgMPH,GustSpeedMaxMPH,PrecipitationSumIn
2013-1-1,69.3,58.2,48.7,68.1,57.6,48.2,98,98,96,29.99,29.75,14,3,0,1.18
2013-1-2,48.6,44.9,40.1,48.1,44.3,39.6,98,98,95,30.17,29.95,10,4,0,0.12
2013-1-3,53.8,43.0,37.0,40.9,37.7,33.5,98,82,60,30.29,30.12,8,4,0,0.00
2013-1-4,58.8,46.4,34.7,40.0,36.2,32.9,94,70,44,30.37,30.19,8,3,0,0.00
2013-1-5,54.7,48.7,43.7,47.3,41.8,37.4,98,78,62,30.26,30.10,6,2,0,0.00
2013-1-6,53.2,46.8,40.6,51.2,46.1,40.1,98,97,92,30.19,30.05,8,3,0,1.70
2013-1-7,61.0,48.8,36.0,49.3,42.8,35.5,98,82,54,30.22,30.03,9,3,0,0.01
2013-1-8,62.1,56.3,50.2,61.5,54.4,46.0,98,93,82,30.09,29.92,14,4,0,4.27
2013-1-9,65.3,63.1,60.6,64.7,62.5,60.0,98,98,98,30.05,29.93,11,4,0,3.27
2013-1-10,68.7,65.5,63.7,68.1,64.9,63.1,98,98,98,30.02,29.83,14,4,0,1.83
2013-1-11,71.8,67.9,63.5,71.2,67.3,62.9,98,98,98,29.96,29.82,5,2,0,0.44
2013-1-12,81.0,73.3,68.4,75.2,71.4,67.8,98,94,76,29.89,29.72,11,4,0,0.01
2013-1-13,78.1,64.4,46.9,75.9,63.7,46.4,98,98,93,29.97,29.67,12,6,0,1.62
2013-1-14,47.8,43.6,38.3,47.3,43.1,37.8,98,98,98,30.06,29.92,11,4,0,1.90
2013-1-15,46.0,42.6,39.2,45.5,42.1,38.7,98,98,98,30.00,29.83,7,3,0,0.40
2013-1-16,38.5,37.1,36.1,38.0,36.6,35.6,98,98,98,30.07,29.88,12,5,0,0.17
2013-1-17,56.1,43.0,33.6,41.9,38.4,33.1,98,86,56,30.33,30.05,12,3,0,0.00
2013-1-18,59.7,45.2,36.0,44.8,39.2,35.5,98,83,46,30.43,30.24,8,2,0,0.00
2013-1-19,68.0,50.3,35.1,54.1,45.4,34.6,98,85,60,30.29,30.07,6,2,0,0.00
2013-1-20,68.7,51.0,37.4,51.2,43.8,36.9,98,80,40,30.17,29.97,5,1,0,0.00
2013-1-21,69.1,54.5,39.9,53.6,47.6,39.4,98,80,53,30.12,30.00,7,1,0,0.00
2013-1-22,66.4,52.1,43.9,50.4,45.6,41.5,98,80,55,30.25,30.07,5,2,0,0.00
2013-1-23,73.0,55.7,39.2,56.4,49.2,38.7,98,82,46,30.29,30.12,8,2,0,0.00
2013-1-24,74.8,60.3,45.9,64.9,56.8,45.4,98,89,70,30.23,30.05,7,2,0,0.00
2013-1-25,77.2,63.1,50.7,65.4,59.3,50.2,98,88,66,30.13,29.96,15,3,0,0.00
2013-1-26,78.4,63.4,53.4,68.9,59.9,52.8,98,90,65,30.13,29.98,6,1,0,0.00
2013-1-27,76.6,63.9,50.5,67.4,60.5,50.0,98,90,70,30.14,29.99,8,3,0,0.00
2013-1-28,76.5,66.4,57.9,71.1,64.8,57.3,98,95,82,30.12,29.94,8,3,0,0.00
2013-1-29,81.5,72.7,64.8,75.1,71.0,64.2,98,95,77,29.96,29.59,12,5,0,0.00
2013-1-30,76.3,58.8,40.6,75.4,50.9,36.4,98,77,47,30.09,29.52,18,6,0,1.04
2013-1-31,63.3,47.9,31.8,43.2,36.0,30.5,98,69,29,30.24,30.06,9,2,0,0.00